createdAt,value
2018-02-24T00:00:30.237Z,33.45
2018-02-24T00:03:00.629Z,33.28
2018-02-24T00:05:29.168Z,30.45
2018-02-24T00:07:57.480Z,30.70
2018-02-24T00:10:25.820Z,32.90
2018-02-24T00:12:54.174Z,31.92
2018-02-24T00:15:22.590Z,27.25
2018-02-24T00:17:51.219Z,28.60
2018-02-24T00:20:20.325Z,30.83
2018-02-24T00:22:50.262Z,31.83
2018-02-24T00:25:19.208Z,32.35
2018-02-24T00:27:47.526Z,35.13
2018-02-24T00:30:15.865Z,25.73
2018-02-24T00:32:45.100Z,34.38
2018-02-24T00:35:13.417Z,33.22
2018-02-24T00:37:41.758Z,34.25
2018-02-24T00:40:10.162Z,34.05
2018-02-24T00:42:38.633Z,34.97
2018-02-24T00:45:07.000Z,31.52
2018-02-24T00:47:35.335Z,35.75
2018-02-24T00:50:04.433Z,27.37
2018-02-24T00:52:33.706Z,29.27
2018-02-24T00:55:02.832Z,31.35
2018-02-24T00:57:31.920Z,35.75
2018-02-24T01:00:01.044Z,33.08
2018-02-24T01:02:29.545Z,35.95
2018-02-24T01:04:57.975Z,30.52
2018-02-24T01:07:26.324Z,33.60
2018-02-24T01:09:55.422Z,32.03
2018-02-24T01:12:23.755Z,28.20
2018-02-24T01:14:52.108Z,30.30
2018-02-24T01:17:20.550Z,32.05
2018-02-24T01:19:48.946Z,31.85
2018-02-24T01:22:18.107Z,31.62
2018-02-24T01:24:46.594Z,33.97
2018-02-24T01:27:15.079Z,31.83
2018-02-24T01:29:44.213Z,32.72
2018-02-24T01:32:12.590Z,36.20
2018-02-24T01:34:40.917Z,31.23
2018-02-24T01:37:09.225Z,36.45
2018-02-24T01:39:39.712Z,28.98
2018-02-24T01:42:08.044Z,30.17
2018-02-24T01:44:36.499Z,37.83
2018-02-24T01:47:04.982Z,33.03
2018-02-24T01:49:33.367Z,36.75
2018-02-24T01:52:02.632Z,30.77
2018-02-24T01:54:31.096Z,36.22
2018-02-24T01:56:59.487Z,34.33
2018-02-24T01:59:28.908Z,31.45
2018-02-24T02:01:57.272Z,32.15
2018-02-24T02:04:25.628Z,42.72
2018-02-24T02:06:53.968Z,34.70
2018-02-24T02:09:22.453Z,33.40
2018-02-24T02:11:50.818Z,32.70
2018-02-24T02:14:19.907Z,35.08
2018-02-24T02:16:49.022Z,36.85
2018-02-24T02:19:18.084Z,36.08
2018-02-24T02:21:46.403Z,32.05
2018-02-24T02:24:15.626Z,41.33
2018-02-24T02:26:43.947Z,34.25
2018-02-24T02:29:13.145Z,34.15
2018-02-24T02:31:42.213Z,40.83
2018-02-24T02:34:10.532Z,36.20
2018-02-24T02:36:38.882Z,40.88
2018-02-24T02:39:07.981Z,37.33
2018-02-24T02:41:37.076Z,43.28
2018-02-24T02:44:06.155Z,37.67
2018-02-24T02:46:34.504Z,44.28
2018-02-24T02:49:02.990Z,35.03
2018-02-24T02:51:31.445Z,33.08
2018-02-24T02:53:59.776Z,39.80
2018-02-24T02:56:29.051Z,39.10
2018-02-24T02:58:58.223Z,31.02
2018-02-24T03:01:26.537Z,43.28
2018-02-24T03:03:55.010Z,35.10
2018-02-24T03:06:23.483Z,39.72
2018-02-24T03:08:52.056Z,36.35
2018-02-24T03:11:20.478Z,38.45
2018-02-24T03:13:49.707Z,34.35
2018-02-24T03:16:18.177Z,34.20
2018-02-24T03:18:46.611Z,34.78
2018-02-24T03:21:15.892Z,37.10
2018-02-24T03:23:44.261Z,45.17
2018-02-24T03:26:12.696Z,36.55
2018-02-24T03:28:41.584Z,39.13
2018-02-24T03:31:09.947Z,41.17
2018-02-24T03:33:39.054Z,35.83
2018-02-24T03:36:08.346Z,33.00
2018-02-24T03:38:36.674Z,35.83
2018-02-24T03:41:05.017Z,33.50
2018-02-24T03:43:34.059Z,31.30
2018-02-24T03:46:02.387Z,40.80
2018-02-24T03:48:30.783Z,34.97
2018-02-24T03:50:59.256Z,41.30
2018-02-24T03:53:27.831Z,39.95
2018-02-24T03:55:56.130Z,37.10
2018-02-24T03:58:24.564Z,33.50
2018-02-24T04:00:52.894Z,37.05
2018-02-24T04:03:21.219Z,35.15
2018-02-24T04:05:49.581Z,39.22
2018-02-24T04:08:18.821Z,40.90
2018-02-24T04:10:47.208Z,40.15
2018-02-24T04:13:15.793Z,34.30
2018-02-24T04:15:44.103Z,37.88
2018-02-24T04:18:12.486Z,48.60
2018-02-24T04:20:41.595Z,39.20
2018-02-24T04:23:09.946Z,41.17
2018-02-24T04:25:38.264Z,39.47
2018-02-24T04:28:06.597Z,37.92
2018-02-24T04:30:35.017Z,35.60
2018-02-24T04:33:03.351Z,37.25
2018-02-24T04:35:31.676Z,39.13
2018-02-24T04:38:00.117Z,40.30
2018-02-24T04:40:29.363Z,35.95
2018-02-24T04:42:57.701Z,42.70
2018-02-24T04:45:26.776Z,37.78
2018-02-24T04:47:55.092Z,33.42
2018-02-24T04:50:23.600Z,34.72
2018-02-24T04:52:51.928Z,31.08
2018-02-24T04:55:21.029Z,39.28
2018-02-24T04:57:50.145Z,40.33
2018-02-24T05:00:18.486Z,33.83
2018-02-24T05:02:47.576Z,42.28
2018-02-24T05:05:15.970Z,36.45
2018-02-24T05:07:44.352Z,40.20
2018-02-24T05:10:13.467Z,38.72
2018-02-24T05:12:41.793Z,41.37
2018-02-24T05:15:10.119Z,40.78
2018-02-24T05:17:38.498Z,37.55
2018-02-24T05:20:06.879Z,41.80
2018-02-24T05:22:35.317Z,41.58
2018-02-24T05:25:03.688Z,34.60
2018-02-24T05:27:32.808Z,44.25
2018-02-24T05:30:01.188Z,41.05
2018-02-24T05:32:29.531Z,41.97
2018-02-24T05:34:58.652Z,40.38
2018-02-24T05:37:27.209Z,45.90
2018-02-24T05:39:55.556Z,43.40
2018-02-24T05:42:23.894Z,33.38
2018-02-24T05:44:52.250Z,44.67
2018-02-24T05:47:21.859Z,37.92
2018-02-24T05:49:50.952Z,35.08
2018-02-24T05:52:20.057Z,36.88
2018-02-24T05:54:49.240Z,38.17
2018-02-24T05:57:17.622Z,44.45
2018-02-24T05:59:46.717Z,37.58
2018-02-24T06:02:15.894Z,32.53
2018-02-24T06:04:44.293Z,43.63
2018-02-24T06:07:13.693Z,36.65
2018-02-24T06:09:42.072Z,37.65
2018-02-24T06:12:10.444Z,40.08
2018-02-24T06:14:39.570Z,39.83
2018-02-24T06:17:07.900Z,33.70
2018-02-24T06:19:36.297Z,37.38
2018-02-24T06:22:05.420Z,35.00
2018-02-24T06:24:33.769Z,33.70
2018-02-24T06:27:02.114Z,40.22
2018-02-24T06:29:30.552Z,28.98
2018-02-24T06:31:58.854Z,42.15
2018-02-24T06:34:28.179Z,35.15
2018-02-24T06:36:57.699Z,38.83
2018-02-24T06:39:27.219Z,34.15
2018-02-24T06:41:55.565Z,43.53
2018-02-24T06:44:26.063Z,36.15
2018-02-24T06:46:54.432Z,35.13
2018-02-24T06:49:22.767Z,32.85
2018-02-24T06:51:51.988Z,32.70
2018-02-24T06:54:20.331Z,40.75
2018-02-24T06:56:48.690Z,39.63
2018-02-24T06:59:17.033Z,34.58
2018-02-24T07:01:45.378Z,33.90
2018-02-24T07:04:13.995Z,31.50
2018-02-24T07:06:42.366Z,39.72
2018-02-24T07:09:10.920Z,34.22
2018-02-24T07:11:39.282Z,36.83
2018-02-24T07:14:08.728Z,36.90
2018-02-24T07:16:37.096Z,32.42
2018-02-24T07:19:05.682Z,38.25
2018-02-24T07:21:34.039Z,36.13
2018-02-24T07:24:02.368Z,33.90
2018-02-24T07:26:30.829Z,33.00
2018-02-24T07:28:59.192Z,40.75
2018-02-24T07:31:27.809Z,37.33
2018-02-24T07:33:56.232Z,33.83
2018-02-24T07:36:24.555Z,39.90
2018-02-24T07:38:52.997Z,34.60
2018-02-24T07:41:21.587Z,41.10
2018-02-24T07:43:49.920Z,35.30
2018-02-24T07:46:19.027Z,36.08
2018-02-24T07:48:47.632Z,36.00
2018-02-24T07:51:16.849Z,32.97
2018-02-24T07:53:46.043Z,38.50
2018-02-24T07:56:14.510Z,36.97
2018-02-24T07:58:42.831Z,33.65
2018-02-24T08:01:11.492Z,31.27
2018-02-24T08:03:39.816Z,28.55
2018-02-24T08:06:08.927Z,36.22
2018-02-24T08:08:37.307Z,37.90
2018-02-24T08:11:05.659Z,34.30
2018-02-24T08:13:34.765Z,26.17
2018-02-24T08:16:03.093Z,30.40
2018-02-24T08:18:31.640Z,32.17
2018-02-24T08:21:00.058Z,30.00
2018-02-24T08:23:28.641Z,28.58
2018-02-24T08:25:56.988Z,27.83
2018-02-24T08:28:25.468Z,28.30
2018-02-24T08:30:53.980Z,30.23
2018-02-24T08:33:22.462Z,29.55
2018-02-24T08:35:50.851Z,28.58
2018-02-24T08:38:19.172Z,28.70
2018-02-24T08:40:47.523Z,24.95
2018-02-24T08:43:16.602Z,30.02
2018-02-24T08:45:45.768Z,25.75
2018-02-24T08:48:14.096Z,22.70
2018-02-24T08:50:42.440Z,33.30
2018-02-24T08:53:12.572Z,33.63
2018-02-24T08:55:41.680Z,27.92
2018-02-24T08:58:10.776Z,26.83
2018-02-24T09:00:39.905Z,25.58
2018-02-24T09:03:08.437Z,31.02
2018-02-24T09:05:36.842Z,30.80
2018-02-24T09:08:05.841Z,26.58
2018-02-24T09:10:34.253Z,30.02
2018-02-24T09:13:02.617Z,26.80
2018-02-24T09:15:30.970Z,32.17
2018-02-24T09:17:59.320Z,30.02
2018-02-24T09:20:28.413Z,30.77
2018-02-24T09:22:57.658Z,28.85
2018-02-24T09:25:26.334Z,26.42
2018-02-24T09:27:54.651Z,30.30
2018-02-24T09:30:23.124Z,30.90
2018-02-24T09:32:52.953Z,32.95
2018-02-24T09:35:22.259Z,29.05
2018-02-24T09:37:51.397Z,27.33
2018-02-24T09:40:19.724Z,26.15
2018-02-24T09:42:48.831Z,24.10
2018-02-24T09:45:17.213Z,25.23
2018-02-24T09:47:45.650Z,26.80
2018-02-24T09:50:13.968Z,27.23
2018-02-24T09:52:42.500Z,25.92
2018-02-24T09:55:10.842Z,43.15
2018-02-24T09:57:39.313Z,26.02
2018-02-24T10:00:07.664Z,26.33
2018-02-24T10:02:35.987Z,27.00
2018-02-24T10:05:04.340Z,25.50
2018-02-24T10:07:33.418Z,26.70
2018-02-24T10:10:02.627Z,31.52
2018-02-24T10:12:31.107Z,24.67
2018-02-24T10:15:00.296Z,31.55
2018-02-24T10:17:29.424Z,24.73
2018-02-24T10:19:57.757Z,27.65
2018-02-24T10:22:26.104Z,18.08
2018-02-24T10:24:54.464Z,29.83
2018-02-24T10:27:22.952Z,30.12
2018-02-24T10:29:51.494Z,28.00
2018-02-24T10:32:20.641Z,22.77
2018-02-24T10:34:48.952Z,26.52
2018-02-24T10:37:18.243Z,22.52
2018-02-24T10:39:47.379Z,25.48
2018-02-24T10:42:15.875Z,28.83
2018-02-24T10:44:44.200Z,25.85
2018-02-24T10:47:13.338Z,26.67
2018-02-24T10:49:41.714Z,22.92
2018-02-24T10:52:10.271Z,22.30
2018-02-24T10:54:38.885Z,23.95
2018-02-24T10:57:07.239Z,23.27
2018-02-24T10:59:35.665Z,22.73
2018-02-24T11:02:04.828Z,22.20
2018-02-24T11:04:33.206Z,28.12
2018-02-24T11:07:01.998Z,21.12
2018-02-24T11:09:30.388Z,24.48
2018-02-24T11:11:58.799Z,29.02
2018-02-24T11:14:27.633Z,22.45
2018-02-24T11:16:56.249Z,20.90
2018-02-24T11:19:24.815Z,22.80
2018-02-24T11:21:53.615Z,20.35
2018-02-24T11:24:22.274Z,22.48
2018-02-24T11:26:50.705Z,23.48
2018-02-24T11:29:20.444Z,17.10
2018-02-24T11:31:49.048Z,22.30
2018-02-24T11:34:17.875Z,21.70
2018-02-24T11:36:47.050Z,20.98
2018-02-24T11:39:15.366Z,24.90
2018-02-24T11:41:44.502Z,23.95
2018-02-24T11:44:13.026Z,22.42
2018-02-24T11:46:41.471Z,20.70
2018-02-24T11:49:10.462Z,20.48
2018-02-24T11:51:39.595Z,23.52
2018-02-24T11:54:08.939Z,25.92
2018-02-24T11:56:37.263Z,24.73
2018-02-24T11:59:05.625Z,24.25
2018-02-24T12:01:33.987Z,24.35
2018-02-24T12:04:02.369Z,20.88
2018-02-24T12:06:30.664Z,23.55
2018-02-24T12:08:59.003Z,18.85
2018-02-24T12:11:27.345Z,25.60
2018-02-24T12:13:56.417Z,22.50
2018-02-24T12:16:24.779Z,21.08
2018-02-24T12:18:53.332Z,24.90
2018-02-24T12:21:21.847Z,18.00
2018-02-24T12:23:50.343Z,20.00
2018-02-24T12:26:19.437Z,20.48
2018-02-24T12:28:48.740Z,17.03
2018-02-24T12:31:17.870Z,20.40
2018-02-24T12:33:46.459Z,18.80
2018-02-24T12:36:14.789Z,21.55
2018-02-24T12:38:43.463Z,24.67
2018-02-24T12:41:11.814Z,17.00
2018-02-24T12:43:40.309Z,17.45
2018-02-24T12:46:08.749Z,17.12
2018-02-24T12:48:37.078Z,17.10
2018-02-24T12:51:05.418Z,18.55
2018-02-24T12:53:33.765Z,19.83
2018-02-24T12:56:02.144Z,16.52
2018-02-24T12:58:30.572Z,17.48
2018-02-24T13:00:58.901Z,15.07
2018-02-24T13:03:27.344Z,17.67
2018-02-24T13:05:55.899Z,22.62
2018-02-24T13:08:24.215Z,14.70
2018-02-24T13:10:52.554Z,15.45
2018-02-24T13:13:20.956Z,14.40
2018-02-24T13:15:49.296Z,15.57
2018-02-24T13:18:17.686Z,15.05
2018-02-24T13:20:46.008Z,13.73
2018-02-24T13:23:15.116Z,15.05
2018-02-24T13:25:43.602Z,13.85
2018-02-24T13:28:11.939Z,14.45
2018-02-24T13:30:40.404Z,11.30
2018-02-24T13:33:09.062Z,12.48
2018-02-24T13:35:37.482Z,13.73
2018-02-24T13:38:06.164Z,13.13
2018-02-24T13:40:34.703Z,15.10
2018-02-24T13:43:03.610Z,11.60
2018-02-24T13:45:32.073Z,18.15
2018-02-24T13:48:00.646Z,15.90
2018-02-24T13:50:29.400Z,14.38
2018-02-24T13:52:58.039Z,12.50
2018-02-24T13:55:26.440Z,13.60
2018-02-24T13:57:55.040Z,11.60
2018-02-24T14:00:23.908Z,15.75
2018-02-24T14:02:52.315Z,13.10
2018-02-24T14:05:20.820Z,12.98
2018-02-24T14:07:49.165Z,11.00
2018-02-24T14:10:17.621Z,13.68
2018-02-24T14:12:47.841Z,13.90
2018-02-24T14:15:17.042Z,10.68
2018-02-24T14:17:46.224Z,9.77
2018-02-24T14:20:15.706Z,13.80
2018-02-24T14:22:46.248Z,12.93
2018-02-24T14:25:14.948Z,15.10
2018-02-24T14:27:47.710Z,13.00
2018-02-24T14:30:18.511Z,11.25
2018-02-24T14:32:47.739Z,15.85
2018-02-24T14:35:17.226Z,10.88
2018-02-24T14:37:45.581Z,11.18
2018-02-24T14:40:14.789Z,11.88
2018-02-24T14:42:44.161Z,13.10
2018-02-24T14:45:13.358Z,12.10
2018-02-24T14:47:42.824Z,12.05
2018-02-24T14:50:11.150Z,12.27
2018-02-24T14:52:41.175Z,19.85
2018-02-24T14:55:09.676Z,10.32
2018-02-24T14:57:39.356Z,6.80
2018-02-24T15:00:07.688Z,8.82
2018-02-24T15:02:36.191Z,7.60
2018-02-24T15:05:04.501Z,7.40
2018-02-24T15:07:33.679Z,10.48
2018-02-24T15:10:03.181Z,9.07
2018-02-24T15:12:32.398Z,8.60
2018-02-24T15:15:00.796Z,5.97
2018-02-24T15:17:29.264Z,11.55
2018-02-24T15:19:57.618Z,7.68
2018-02-24T15:22:26.883Z,9.90
2018-02-24T15:24:55.190Z,7.20
2018-02-24T15:27:24.664Z,7.12
2018-02-24T15:29:53.239Z,5.45
2018-02-24T15:32:21.801Z,6.10
2018-02-24T15:34:51.229Z,7.93
2018-02-24T15:37:19.609Z,8.05
2018-02-24T15:39:48.060Z,9.48
2018-02-24T15:42:16.453Z,6.50
2018-02-24T15:44:45.118Z,5.35
2018-02-24T15:47:13.572Z,6.72
2018-02-24T15:49:42.731Z,7.43
2018-02-24T15:52:11.977Z,10.50
2018-02-24T15:54:40.784Z,7.37
2018-02-24T15:57:10.084Z,8.80
2018-02-24T15:59:39.452Z,9.80
2018-02-24T16:02:10.957Z,7.57
2018-02-24T16:04:40.018Z,5.87
2018-02-24T16:07:08.628Z,7.93
2018-02-24T16:09:37.442Z,7.03
2018-02-24T16:12:05.902Z,7.37
2018-02-24T16:14:34.501Z,8.80
2018-02-24T16:17:03.999Z,9.68
2018-02-24T16:19:32.949Z,10.50
2018-02-24T16:22:01.746Z,10.48
2018-02-24T16:24:30.805Z,9.77
2018-02-24T16:26:59.203Z,9.75
2018-02-24T16:29:28.121Z,9.23
2018-02-24T16:31:56.593Z,8.77
2018-02-24T16:34:25.754Z,12.10
2018-02-24T16:36:54.503Z,10.80
2018-02-24T16:39:23.539Z,15.55
2018-02-24T16:41:52.365Z,8.95
2018-02-24T16:44:21.426Z,11.07
2018-02-24T16:46:50.568Z,14.90
2018-02-24T16:49:19.897Z,30.70
2018-02-24T16:51:49.956Z,16.73
2018-02-24T16:54:19.386Z,12.80
2018-02-24T16:56:48.540Z,13.25
2018-02-24T16:59:18.656Z,11.98
2018-02-24T17:01:48.892Z,10.90
2018-02-24T17:04:17.684Z,14.45
2018-02-24T17:06:49.649Z,15.75
2018-02-24T17:09:19.975Z,11.48
2018-02-24T17:11:49.564Z,13.27
2018-02-24T17:14:19.004Z,10.50
2018-02-24T17:16:47.825Z,13.10
2018-02-24T17:19:16.406Z,14.10
2018-02-24T17:21:44.978Z,17.50
2018-02-24T17:24:13.528Z,12.02
2018-02-24T17:26:42.808Z,15.35
2018-02-24T17:29:12.658Z,13.77
2018-02-24T17:31:42.717Z,12.65
2018-02-24T17:34:11.640Z,13.18
2018-02-24T17:36:40.943Z,14.75
2018-02-24T17:39:09.592Z,10.93
2018-02-24T17:41:38.079Z,11.60
2018-02-24T17:44:09.421Z,12.95
2018-02-24T17:46:38.273Z,12.70
2018-02-24T17:49:07.098Z,10.68
2018-02-24T17:51:36.632Z,9.23
2018-02-24T17:54:06.124Z,11.88
2018-02-24T17:56:35.514Z,10.18
2018-02-24T17:59:04.107Z,10.32
2018-02-24T18:01:33.180Z,8.65
2018-02-24T18:04:01.803Z,11.18
2018-02-24T18:06:30.404Z,11.93
2018-02-24T18:08:59.054Z,10.68
2018-02-24T18:11:28.329Z,9.15
2018-02-24T18:13:57.346Z,8.00
2018-02-24T18:16:25.932Z,10.07
2018-02-24T18:18:54.959Z,9.40
2018-02-24T18:21:23.469Z,10.00
2018-02-24T18:23:52.339Z,10.80
2018-02-24T18:26:21.136Z,7.30
2018-02-24T18:28:49.745Z,9.20
2018-02-24T18:31:18.760Z,8.70
2018-02-24T18:33:47.638Z,9.77
2018-02-24T18:36:17.412Z,8.00
2018-02-24T18:38:46.325Z,9.13
2018-02-24T18:41:15.965Z,7.53
2018-02-24T18:43:45.740Z,10.50
2018-02-24T18:46:14.364Z,6.82
2018-02-24T18:48:44.231Z,7.28
2018-02-24T18:51:14.211Z,8.88
2018-02-24T18:53:43.454Z,7.28
2018-02-24T18:56:12.274Z,6.53
2018-02-24T18:58:41.836Z,7.85
2018-02-24T19:01:10.628Z,7.93
2018-02-24T19:03:40.010Z,6.10
2018-02-24T19:06:09.018Z,8.55
2018-02-24T19:08:38.984Z,8.40
2018-02-24T19:11:08.441Z,7.32
2018-02-24T19:13:38.273Z,6.53
2018-02-24T19:16:07.245Z,6.20
2018-02-24T19:18:35.721Z,14.05
2018-02-24T19:21:04.269Z,7.53
2018-02-24T19:23:33.591Z,6.93
2018-02-24T19:26:02.761Z,8.02
2018-02-24T19:28:32.126Z,7.03
2018-02-24T19:31:00.716Z,8.00
2018-02-24T19:33:29.192Z,11.52
2018-02-24T19:35:57.644Z,7.45
2018-02-24T19:38:28.594Z,8.38
2018-02-24T19:40:58.443Z,7.43
2018-02-24T19:43:27.078Z,7.55
2018-02-24T19:45:56.261Z,9.73
2018-02-24T19:48:25.201Z,5.93
2018-02-24T19:50:54.048Z,6.70
2018-02-24T19:53:23.593Z,7.30
2018-02-24T19:55:53.206Z,5.57
2018-02-24T19:58:21.971Z,7.00
2018-02-24T20:00:50.798Z,7.28
2018-02-24T20:03:20.197Z,8.65
2018-02-24T20:05:50.036Z,4.28
2018-02-24T20:08:18.981Z,4.60
2018-02-24T20:10:47.946Z,5.60
2018-02-24T20:13:16.840Z,6.97
2018-02-24T20:15:46.624Z,7.97
2018-02-24T20:18:16.154Z,4.90
2018-02-24T20:20:44.993Z,5.70
2018-02-24T20:23:13.903Z,3.92
2018-02-24T20:25:42.460Z,5.10
2018-02-24T20:28:10.922Z,3.85
2018-02-24T20:30:40.552Z,3.20
2018-02-24T20:33:09.326Z,4.10
2018-02-24T20:35:37.930Z,3.50
2018-02-24T20:38:07.615Z,4.30
2018-02-24T20:40:37.592Z,3.12
2018-02-24T20:43:07.373Z,2.70
2018-02-24T20:45:36.164Z,2.72
2018-02-24T20:48:04.874Z,4.62
2018-02-24T20:50:36.839Z,4.72
2018-02-24T20:53:05.716Z,3.70
2018-02-24T20:55:35.852Z,3.90
2018-02-24T20:58:04.774Z,3.78
2018-02-24T21:00:33.404Z,3.90
2018-02-24T21:03:03.868Z,3.85
2018-02-24T21:05:33.696Z,3.03
2018-02-24T21:08:02.188Z,4.10
2018-02-24T21:10:31.808Z,4.15
2018-02-24T21:13:01.586Z,2.80
2018-02-24T21:15:30.203Z,3.92
2018-02-24T21:18:00.096Z,5.20
2018-02-24T21:20:28.779Z,3.53
2018-02-24T21:22:57.955Z,3.47
2018-02-24T21:25:27.535Z,4.78
2018-02-24T21:27:56.803Z,5.00
2018-02-24T21:30:25.562Z,2.97
2018-02-24T21:32:54.174Z,6.05
2018-02-24T21:35:23.154Z,3.20
2018-02-24T21:37:51.757Z,3.15
2018-02-24T21:40:21.678Z,3.30
2018-02-24T21:42:50.652Z,3.37
2018-02-24T21:45:20.463Z,3.40
2018-02-24T21:47:49.705Z,2.78
2018-02-24T21:50:19.686Z,3.90
2018-02-24T21:52:50.207Z,3.28
2018-02-24T21:55:19.195Z,6.75
2018-02-24T21:57:49.623Z,2.50
2018-02-24T22:00:18.067Z,3.28
2018-02-24T22:02:47.084Z,4.95
2018-02-24T22:05:15.809Z,4.53
2018-02-24T22:07:44.980Z,4.90
2018-02-24T22:10:13.896Z,4.93
2018-02-24T22:12:42.490Z,2.78
2018-02-24T22:15:11.498Z,3.67
2018-02-24T22:17:40.952Z,2.97
2018-02-24T22:20:11.408Z,4.62
2018-02-24T22:22:41.390Z,2.95
2018-02-24T22:25:10.020Z,4.30
2018-02-24T22:27:39.683Z,7.45
2018-02-24T22:30:10.012Z,4.45
2018-02-24T22:32:39.482Z,2.75
2018-02-24T22:35:08.039Z,3.28
2018-02-24T22:37:37.746Z,4.97
2018-02-24T22:40:06.576Z,4.70
2018-02-24T22:42:36.090Z,4.22
2018-02-24T22:45:04.988Z,4.40
2018-02-24T22:47:39.664Z,7.22
2018-02-24T22:50:08.331Z,7.60
2018-02-24T22:52:37.254Z,7.00
2018-02-24T22:55:06.569Z,3.50
2018-02-24T22:57:35.463Z,4.03
2018-02-24T23:00:04.059Z,4.05
2018-02-24T23:02:33.042Z,3.78
2018-02-24T23:05:01.822Z,3.95
2018-02-24T23:07:30.710Z,3.85
2018-02-24T23:10:00.039Z,3.90
2018-02-24T23:12:28.998Z,3.87
2018-02-24T23:14:58.010Z,5.00
2018-02-24T23:17:29.430Z,4.50
2018-02-24T23:19:59.923Z,5.60
2018-02-24T23:22:31.348Z,10.38
2018-02-24T23:25:00.515Z,4.40
2018-02-24T23:27:29.465Z,6.72
2018-02-24T23:29:59.145Z,3.85
2018-02-24T23:32:28.448Z,3.80
2018-02-24T23:34:57.614Z,3.53
2018-02-24T23:37:25.943Z,4.60
2018-02-24T23:39:55.127Z,4.68
2018-02-24T23:42:24.519Z,8.77
2018-02-24T23:44:53.246Z,5.72
2018-02-24T23:47:21.663Z,4.37
2018-02-24T23:49:50.074Z,7.80
2018-02-24T23:52:18.836Z,6.78
2018-02-24T23:54:48.172Z,5.10
2018-02-24T23:57:16.714Z,5.80
2018-02-24T23:59:46.092Z,5.25
